Time;durP1;ratioP1;P1;durP2;ratioP2;P2;SDS_P1;SDS_P2;PMS_P1;PMS_P2;Temp;Humidity;BMP_temperature;BMP_pressure;BME280_temperature;BME280_humidity;BME280_pressure;Samples;Min_cycle;Max_cycle;Signal;HPM_P1;HPM_P2
2023/03/12 00:00:43;;;;;;;11.80;5.32;;;;;;;;;;5051573;28;20473;-68
2023/03/12 00:03:09;;;;;;;11.80;5.22;;;;;;;;;;5068321;28;20052;-66
2023/03/12 00:05:42;;;;;;;15.00;5.13;;;;;;;;;;5067552;28;20075;-67
2023/03/12 00:08:09;;;;;;;15.10;5.97;;;;;;;;;;5052781;28;20435;-67
2023/03/12 00:10:37;;;;;;;16.73;5.80;;;;;;;;;;5052713;28;20057;-68
2023/03/12 00:13:03;;;;;;;15.82;6.38;;;;;;;;;;5052314;28;20481;-66
2023/03/12 00:15:29;;;;;;;13.18;5.75;;;;;;;;;;5052703;28;20072;-66
2023/03/12 00:17:55;;;;;;;15.70;6.13;;;;;;;;;;5052740;28;20053;-67
2023/03/12 00:20:22;;;;;;;13.65;5.75;;;;;;;;;;5052446;28;20075;-66
2023/03/12 00:22:48;;;;;;;;;;;0.00;99.90;;;;;;5051846;28;20063;-68
2023/03/12 00:25:15;;;;;;;11.50;5.47;;;;;;;;;;5052300;28;20326;-66
2023/03/12 00:27:41;;;;;;;12.23;7.28;;;0.20;99.90;;;;;;5052389;28;20053;-66
2023/03/12 00:30:09;;;;;;;8.75;6.35;;;;;;;;;;5051289;28;20056;-66
2023/03/12 00:32:36;;;;;;;17.05;6.70;;;;;;;;;;5051291;28;20052;-67
2023/03/12 00:35:02;;;;;;;13.50;6.07;;;;;;;;;;5052270;28;20479;-66
2023/03/12 00:37:28;;;;;;;15.50;7.28;;;;;;;;;;5052188;28;20052;-66
2023/03/12 00:39:54;;;;;;;13.77;7.05;;;;;;;;;;5052042;28;20063;-66
2023/03/12 00:42:20;;;;;;;12.38;6.53;;;;;;;;;;5051737;28;20060;-67
2023/03/12 00:44:47;;;;;;;14.63;7.25;;;;;;;;;;5067377;28;20044;-66
2023/03/12 00:47:13;;;;;;;13.90;6.75;;;;;;;;;;5052028;28;20045;-66
2023/03/12 00:49:39;;;;;;;13.00;6.18;;;;;;;;;;5052181;28;20049;-66
2023/03/12 00:52:06;;;;;;;18.23;7.35;;;;;;;;;;5051952;28;20053;-67
2023/03/12 00:54:31;;;;;;;;;;;-0.60;99.90;;;;;;5052137;28;20134;-66
2023/03/12 00:56:57;;;;;;;14.50;7.75;;;;;;;;;;5052199;28;19992;-65
2023/03/12 00:59:23;;;;;;;15.10;7.30;;;;;;;;;;5051448;28;20048;-66
2023/03/12 01:01:49;;;;;;;13.23;7.15;;;;;;;;;;5052067;28;20045;-66
2023/03/12 01:04:16;;;;;;;18.90;7.65;;;;;;;;;;5050799;28;20049;-67
2023/03/12 01:06:42;;;;;;;16.48;7.18;;;;;;;;;;5051899;28;20386;-66
2023/03/12 01:09:09;;;;;;;;;;;0.30;99.90;;;;;;5051744;28;20449;-65
2023/03/12 01:11:35;;;;;;;12.90;7.15;;;;;;;;;;5051996;28;19921;-65
2023/03/12 01:14:02;;;;;;;15.68;6.85;;;;;;;;;;5051923;28;20053;-66
2023/03/12 01:16:29;;;;;;;11.43;6.78;;;;;;;;;;5051837;28;20048;-66
2023/03/12 01:18:55;;;;;;;15.35;7.60;;;;;;;;;;5051786;28;20166;-65
2023/03/12 01:21:21;;;;;;;;;;;-0.40;99.90;;;;;;5051123;28;20074;-67
2023/03/12 01:23:47;;;;;;;13.18;7.35;;;;;;;;;;5083966;28;19928;-65
2023/03/12 01:26:13;;;;;;;12.88;7.65;;;;;;;;;;5051691;28;20049;-65
2023/03/12 01:28:39;;;;;;;13.77;6.30;;;;;;;;;;5051759;28;20048;-65
2023/03/12 01:31:10;;;;;;;14.93;6.75;;;;;;;;;;5051725;28;20052;-65
2023/03/12 01:33:36;;;;;;;11.57;6.88;;;;;;;;;;5051749;28;20053;-67
2023/03/12 01:36:02;;;;;;;15.05;7.10;;;;;;;;;;5051769;28;20056;-66
2023/03/12 01:38:28;;;;;;;11.43;6.53;;;;;;;;;;5051460;28;20080;-66
2023/03/12 01:40:54;;;;;;;13.43;6.88;;;;;;;;;;5051621;28;20059;-66
2023/03/12 01:43:34;;;;;;;14.98;6.03;;;;;;;;;;5051604;28;20079;-66
2023/03/12 01:46:23;;;;;;;11.10;6.28;;;-0.60;99.90;;;;;;5050383;28;20382;-66
2023/03/12 01:48:57;;;;;;;11.70;6.85;;;;;;;;;;5051593;28;20057;-66
2023/03/12 01:51:25;;;;;;;14.13;6.80;;;;;;;;;;5051075;28;20099;-68
2023/03/12 01:53:55;;;;;;;13.85;6.78;;;-0.60;99.90;;;;;;5051494;28;20049;-66
2023/03/12 01:56:21;;;;;;;14.48;7.07;;;;;;;;;;5066991;28;20044;-65
2023/03/12 01:58:51;;;;;;;11.23;7.07;;;0.00;99.90;;;;;;5051479;28;20123;-66
2023/03/12 02:01:18;;;;;;;13.43;7.18;;;0.10;99.90;;;;;;5051505;28;20045;-67
2023/03/12 02:03:46;;;;;;;13.40;6.63;;;;;;;;;;5051430;28;20053;-66
2023/03/12 02:06:13;;;;;;;15.75;7.68;;;;;;;;;;5051125;28;20110;-66
2023/03/12 02:08:40;;;;;;;12.35;6.40;;;;;;;;;;5050332;28;20464;-65
2023/03/12 02:11:06;;;;;;;12.00;6.95;;;;;;;;;;5051232;28;20087;-67
2023/03/12 02:13:33;;;;;;;13.80;6.93;;;;;;;;;;5051301;28;20080;-65
2023/03/12 02:15:59;;;;;;;13.82;7.10;;;;;;;;;;5051318;28;20103;-66
2023/03/12 02:18:25;;;;;;;;;;;0.80;99.90;;;;;;5051758;28;20447;-65
2023/03/12 02:21:15;;;;;;;14.82;6.72;;;;;;;;;;5051059;28;19924;-68
2023/03/12 02:23:48;;;;;;;10.75;6.30;;;;;;;;;;5030423;28;20448;-65
2023/03/12 02:26:16;;;;;;;14.40;6.28;;;;;;;;;;5051247;28;20045;-65
2023/03/12 02:28:43;;;;;;;13.43;6.82;;;;;;;;;;5051149;28;20064;-66
2023/03/12 02:31:12;;;;;;;11.55;6.15;;;;;;;;;;5054687;28;20048;-66
2023/03/12 02:33:38;;;;;;;10.27;6.80;;;;;;;;;;5054717;28;20131;-66
2023/03/12 02:36:04;;;;;;;11.63;7.05;;;;;;;;;;5054481;28;20396;-66
2023/03/12 02:38:36;;;;;;;11.55;6.35;;;;;;;;;;5054585;28;20049;-66
2023/03/12 02:41:11;;;;;;;17.15;6.65;;;;;;;;;;5054527;28;20130;-66
2023/03/12 02:43:38;;;;;;;14.27;6.47;;;;;;;;;;5053252;28;20139;-66
2023/03/12 02:46:04;;;;;;;13.23;5.93;;;;;;;;;;5053385;28;20126;-65
2023/03/12 02:48:30;;;;;;;13.23;5.80;;;0.50;99.90;;;;;;5054489;28;20041;-66
2023/03/12 02:50:56;;;;;;;13.85;5.82;;;;;;;;;;5054275;28;20044;-65
2023/03/12 02:53:22;;;;;;;9.48;6.07;;;;;;;;;;5054413;28;20100;-68
2023/03/12 02:55:48;;;;;;;14.48;6.22;;;;;;;;;;5054398;28;20048;-66
2023/03/12 02:58:14;;;;;;;11.98;5.72;;;;;;;;;;5053181;28;20117;-65
2023/03/12 03:00:40;;;;;;;11.90;5.85;;;;;;;;;;5054588;28;20041;-66
2023/03/12 03:03:06;;;;;;;10.63;5.70;;;;;;;;;;5054378;28;20049;-66
2023/03/12 03:05:35;;;;;;;13.27;5.47;;;;;;;;;;5054004;28;20059;-67
2023/03/12 03:08:01;;;;;;;10.57;5.72;;;;;;;;;;5054140;28;20045;-65
2023/03/12 03:10:27;;;;;;;11.02;5.80;;;;;;;;;;5036454;28;20731;-67
2023/03/12 03:12:53;;;;;;;13.95;5.70;;;;;;;;;;5054003;28;20045;-66
2023/03/12 03:15:19;;;;;;;7.68;4.95;;;;;;;;;;5054069;28;20056;-66
2023/03/12 03:17:45;;;;;;;16.60;6.30;;;;;;;;;;5053892;28;20048;-66
2023/03/12 03:20:12;;;;;;;9.18;5.32;;;;;;;;;;5053634;28;20063;-66
2023/03/12 03:22:38;;;;;;;11.88;5.60;;;;;;;;;;5053820;28;20048;-66
2023/03/12 03:25:05;;;;;;;12.38;5.82;;;;;;;;;;5053862;28;20049;-66
2023/03/12 03:27:31;;;;;;;9.68;5.30;;;;;;;;;;5053836;28;20091;-66
2023/03/12 03:29:57;;;;;;;11.63;5.53;;;;;;;;;;5053757;28;20045;-67
2023/03/12 03:32:23;;;;;;;9.05;5.03;;;;;;;;;;5053545;28;20044;-66
2023/03/12 03:34:49;;;;;;;8.18;4.75;;;;;;;;;;5053375;28;20077;-67
2023/03/12 03:37:15;;;;;;;9.73;4.65;;;0.90;99.90;;;;;;5053815;28;20055;-66
2023/03/12 03:39:41;;;;;;;7.30;4.80;;;;;;;;;;5053527;28;20389;-65
2023/03/12 03:42:07;;;;;;;11.20;5.90;;;;;;;;;;5051919;28;20053;-66
2023/03/12 03:44:33;;;;;;;10.70;5.03;;;;;;;;;;5053439;28;20151;-66
2023/03/12 03:46:59;;;;;;;11.82;5.15;;;;;;;;;;5053466;28;20084;-66
2023/03/12 03:49:25;;;;;;;9.40;4.55;;;;;;;;;;5053118;28;20095;-66
2023/03/12 03:51:51;;;;;;;10.73;4.50;;;;;;;;;;5053265;28;20554;-65
2023/03/12 03:54:18;;;;;;;6.80;4.50;;;;;;;;;;5053238;28;20056;-67
2023/03/12 03:56:44;;;;;;;7.95;4.18;;;;;;;;;;5052122;28;20128;-66
2023/03/12 03:59:10;;;;;;;9.35;5.05;;;;;;;;;;5053128;28;20133;-66
2023/03/12 04:01:36;;;;;;;10.60;4.57;;;;;;;;;;5053090;28;20041;-67
2023/03/12 04:04:03;;;;;;;7.93;4.57;;;;;;;;;;5052728;28;20114;-66
2023/03/12 04:06:29;;;;;;;7.85;4.60;;;;;;;;;;5052965;28;20052;-66
2023/03/12 04:08:58;;;;;;;;;;;1.10;99.90;;;;;;5053341;28;20560;-66
2023/03/12 04:11:24;;;;;;;6.65;4.30;;;;;;;;;;5051614;28;19950;-68
2023/03/12 04:13:50;;;;;;;7.95;4.38;;;;;;;;;;5052894;28;20060;-66
2023/03/12 04:16:16;;;;;;;;;;;;;;;;;;5051733;28;20123;-65
2023/03/12 04:18:42;;;;;;;8.85;4.15;;;;;;;;;;5052709;28;19987;-66
2023/03/12 04:21:09;;;;;;;10.88;4.65;;;;;;;;;;5052744;28;20136;-67
2023/03/12 04:23:35;;;;;;;8.45;4.93;;;;;;;;;;5052721;28;20513;-66
2023/03/12 04:26:02;;;;;;;7.47;4.60;;;;;;;;;;5052468;28;20061;-66
2023/03/12 04:28:28;;;;;;;10.45;4.55;;;;;;;;;;5052586;28;20456;-66
2023/03/12 04:30:55;;;;;;;10.00;4.60;;;;;;;;;;5052353;28;20052;-66
2023/03/12 04:33:21;;;;;;;7.50;4.22;;;;;;;;;;5051155;28;20052;-66
2023/03/12 04:35:51;;;;;;;10.73;4.90;;;;;;;;;;5052475;28;20069;-66
2023/03/12 04:38:17;;;;;;;11.70;4.63;;;;;;;;;;5052415;28;20044;-66
2023/03/12 04:40:43;;;;;;;9.88;4.65;;;;;;;;;;5052371;28;20049;-68
2023/03/12 04:43:10;;;;;;;10.15;4.65;;;;;;;;;;5052017;28;20452;-66
2023/03/12 04:45:36;;;;;;;;;;;0.60;99.90;;;;;;5051259;28;20056;-66
2023/03/12 04:48:03;;;;;;;7.53;4.55;;;;;;;;;;5052353;28;19924;-66
2023/03/12 04:50:29;;;;;;;6.88;4.25;;;;;;;;;;5052608;28;20057;-67
2023/03/12 04:52:54;;;;;;;10.88;4.93;;;1.20;99.90;;;;;;5051967;28;20044;-66
2023/03/12 04:55:20;;;;;;;12.15;5.50;;;;;;;;;;5052286;28;20099;-66
2023/03/12 04:57:46;;;;;;;9.90;5.15;;;1.10;99.90;;;;;;5052199;28;20084;-66
2023/03/12 05:00:12;;;;;;;8.57;4.75;;;;;;;;;;5051825;28;20095;-66
2023/03/12 05:02:39;;;;;;;9.57;4.70;;;;;;;;;;5050946;28;20053;-68
2023/03/12 05:05:06;;;;;;;12.80;5.32;;;;;;;;;;5051907;28;20136;-66
2023/03/12 05:07:32;;;;;;;12.73;4.95;;;;;;;;;;5051953;28;20060;-66
2023/03/12 05:09:58;;;;;;;12.68;5.20;;;0.90;99.90;;;;;;5051955;28;20678;-66
2023/03/12 05:12:24;;;;;;;15.23;5.53;;;;;;;;;;5051784;28;20053;-67
2023/03/12 05:14:50;;;;;;;11.15;5.22;;;;;;;;;;5051410;28;20439;-67
2023/03/12 05:17:16;;;;;;;9.57;5.18;;;;;;;;;;5051873;28;20143;-66
2023/03/12 05:19:42;;;;;;;9.20;5.45;;;;;;;;;;5051846;28;20107;-65
2023/03/12 05:22:08;;;;;;;9.25;5.45;;;;;;;;;;5051811;28;20045;-66
2023/03/12 05:24:37;;;;;;;9.65;5.60;;;;;;;;;;5051757;28;20045;-66
2023/03/12 05:27:03;;;;;;;8.32;5.00;;;;;;;;;;5051675;28;20045;-66
2023/03/12 05:29:34;;;;;;;10.80;5.25;;;;;;;;;;5051422;28;20146;-67
2023/03/12 05:32:00;;;;;;;8.85;5.43;;;;;;;;;;5051672;28;20389;-66
2023/03/12 05:34:27;;;;;;;8.13;5.38;;;;;;;;;;5051610;28;20493;-67
2023/03/12 05:36:53;;;;;;;7.70;5.03;;;;;;;;;;5050360;28;20049;-66
2023/03/12 05:39:19;;;;;;;9.32;4.95;;;;;;;;;;5051779;28;20060;-66
2023/03/12 05:41:45;;;;;;;12.52;5.65;;;;;;;;;;5051159;28;20472;-66
2023/03/12 05:44:14;;;;;;;14.00;5.68;;;;;;;;;;5050446;28;20048;-67
2023/03/12 05:46:41;;;;;;;9.77;5.60;;;1.10;99.90;;;;;;5051624;28;20059;-66
2023/03/12 05:49:07;;;;;;;8.05;5.25;;;;;;;;;;5051559;28;20044;-67
2023/03/12 05:51:33;;;;;;;12.55;5.45;;;;;;;;;;5051434;28;20124;-66
2023/03/12 05:54:00;;;;;;;10.70;5.10;;;;;;;;;;5051477;28;20053;-66
2023/03/12 05:56:26;;;;;;;11.13;6.05;;;;;;;;;;5051455;28;20051;-66
2023/03/12 05:58:52;;;;;;;8.98;5.47;;;;;;;;;;5051220;28;20126;-66
2023/03/12 06:01:23;;;;;;;11.50;8.77;;;;;;;;;;5051168;28;20415;-67
2023/03/12 06:03:49;;;;;;;11.45;5.43;;;;;;;;;;5051691;28;20045;-66
2023/03/12 06:06:15;;;;;;;12.00;5.65;;;1.40;99.90;;;;;;5054247;28;20385;-66
2023/03/12 06:08:42;;;;;;;9.85;5.63;;;;;;;;;;5054061;28;20045;-66
2023/03/12 06:11:08;;;;;;;12.48;5.80;;;;;;;;;;5055038;28;20060;-66
2023/03/12 06:13:34;;;;;;;11.57;5.47;;;;;;;;;;5054832;28;20088;-66
2023/03/12 06:16:08;;;;;;;9.98;5.40;;;;;;;;;;5055031;28;20053;-66
2023/03/12 06:18:35;;;;;;;10.45;5.43;;;;;;;;;;5054697;28;20830;-67
2023/03/12 06:21:09;;;;;;;;;;;1.20;99.90;;;;;;5055110;28;20536;-66
2023/03/12 06:23:36;;;;;;;8.85;5.57;;;1.80;99.90;;;;;;5055024;28;19932;-67
2023/03/12 06:26:02;;;;;;;9.57;5.68;;;;;;;;;;5054827;28;20057;-66
2023/03/12 06:28:28;;;;;;;12.88;6.22;;;;;;;;;;5054660;28;20401;-66
2023/03/12 06:30:55;;;;;;;10.55;5.65;;;;;;;;;;5054850;28;20162;-68
2023/03/12 06:33:21;;;;;;;8.18;5.30;;;;;;;;;;5054703;28;20428;-66
2023/03/12 06:35:47;;;;;;;12.98;5.65;;;;;;;;;;5054749;28;20095;-66
2023/03/12 06:38:13;;;;;;;12.85;5.47;;;;;;;;;;5054434;28;20059;-66
2023/03/12 06:40:40;;;;;;;8.80;5.30;;;;;;;;;;5054939;28;20156;-66
2023/03/12 06:43:10;;;;;;;11.75;5.43;;;;;;;;;;5053812;28;20516;-67
2023/03/12 06:45:36;;;;;;;11.18;5.53;;;1.90;99.90;;;;;;5054605;28;20056;-66
2023/03/12 06:48:03;;;;;;;10.10;5.25;;;1.20;99.90;;;;;;5053505;28;20063;-66
2023/03/12 06:50:28;;;;;;;9.68;4.80;;;1.70;99.90;;;;;;5054542;28;20049;-67
2023/03/12 06:52:54;;;;;;;11.77;5.60;;;;;;;;;;5054433;28;20052;-66
2023/03/12 06:55:20;;;;;;;9.52;5.25;;;;;;;;;;5054374;28;20283;-67
2023/03/12 06:57:46;;;;;;;9.27;5.68;;;;;;;;;;5054075;28;20432;-67
2023/03/12 07:00:13;;;;;;;9.65;5.25;;;;;;;;;;5053190;28;20053;-67
2023/03/12 07:02:38;;;;;;;;;;;1.90;99.90;;;;;;5053384;28;20044;-66
2023/03/12 07:05:04;;;;;;;9.45;5.82;;;1.80;99.90;;;;;;5086600;28;19981;-66
2023/03/12 07:07:30;;;;;;;12.52;5.70;;;;;;;;;;5054095;28;20091;-67
2023/03/12 07:09:59;;;;;;;9.00;6.03;;;1.80;99.90;;;;;;5054091;28;20132;-67
2023/03/12 07:12:25;;;;;;;11.63;6.40;;;;;;;;;;5053419;28;20180;-67
2023/03/12 07:14:51;;;;;;;13.55;6.18;;;1.90;99.90;;;;;;5053870;28;20477;-67
2023/03/12 07:17:17;;;;;;;17.80;7.15;;;;;;;;;;5042895;28;20098;-72
2023/03/12 07:19:43;;;;;;;17.10;6.50;;;;;;;;;;5051882;28;20048;-67
2023/03/12 07:22:09;;;;;;;11.77;8.15;;;;;;;;;;5053637;28;20077;-67
2023/03/12 07:24:35;;;;;;;15.50;7.90;;;;;;;;;;5053480;28;20041;-67
2023/03/12 07:27:02;;;;;;;13.93;8.20;;;;;;;;;;5053241;28;20072;-67
2023/03/12 07:29:29;;;;;;;14.52;8.80;;;;;;;;;;5053416;28;20045;-70
2023/03/12 07:31:55;;;;;;;18.63;8.75;;;;;;;;;;5052987;28;20124;-68
2023/03/12 07:34:21;;;;;;;17.38;9.65;;;;;;;;;;5052196;28;20052;-68
2023/03/12 07:36:47;;;;;;;17.58;9.95;;;;;;;;;;5050857;28;20041;-68
2023/03/12 07:39:13;;;;;;;12.63;9.65;;;;;;;;;;5052725;28;20102;-73
2023/03/12 07:41:39;;;;;;;19.75;10.63;;;;;;;;;;5052408;28;20373;-68
2023/03/12 07:44:05;;;;;;;16.23;10.77;;;;;;;;;;5052920;28;20065;-68
2023/03/12 07:46:31;;;;;;;20.58;10.93;;;;;;;;;;5053466;28;20048;-69
2023/03/12 07:48:57;;;;;;;18.83;11.32;;;;;;;;;;5053326;28;20052;-68
2023/03/12 07:51:23;;;;;;;19.70;11.70;;;;;;;;;;5053203;28;20511;-68
2023/03/12 07:53:50;;;;;;;17.35;12.60;;;;;;;;;;5052750;28;20492;-68
2023/03/12 07:56:16;;;;;;;18.13;12.10;;;;;;;;;;5053185;28;20148;-69
2023/03/12 07:58:42;;;;;;;20.95;12.15;;;;;;;;;;5053115;28;20317;-68
2023/03/12 08:01:08;;;;;;;24.27;13.25;;;;;;;;;;5052799;28;20052;-68
2023/03/12 08:03:35;;;;;;;21.33;13.05;;;1.70;99.90;;;;;;5052399;28;20080;-68
2023/03/12 08:06:03;;;;;;;20.92;13.73;;;;;;;;;;5052974;28;20504;-68
2023/03/12 08:08:30;;;;;;;23.38;13.65;;;;;;;;;;5052620;28;20040;-68
2023/03/12 08:10:56;;;;;;;24.73;14.73;;;;;;;;;;5052883;28;20067;-68
2023/03/12 08:13:23;;;;;;;22.65;14.52;;;;;;;;;;5048436;28;21405;-69
2023/03/12 08:15:52;;;;;;;22.15;14.70;;;0.90;99.90;;;;;;5033586;28;20092;-69
2023/03/12 08:18:19;;;;;;;22.55;15.18;;;;;;;;;;5032411;28;20053;-69
2023/03/12 08:20:44;;;;;;;;;;;1.70;99.90;;;;;;5041143;28;20099;-69
2023/03/12 08:23:10;;;;;;;29.05;15.25;;;1.20;99.90;;;;;;5039486;28;20414;-71
2023/03/12 08:25:37;;;;;;;25.30;16.67;;;;;;;;;;5035704;28;20631;-71
2023/03/12 08:28:03;;;;;;;;;;;;;;;;;;5031705;28;20393;-72
2023/03/12 08:30:30;;;;;;;27.42;15.80;;;;;;;;;;5040287;28;19925;-70
2023/03/12 08:32:56;;;;;;;28.85;15.98;;;;;;;;;;5032202;28;20091;-68
2023/03/12 08:35:22;;;;;;;26.40;16.88;;;1.10;99.90;;;;;;5039872;28;20049;-70
2023/03/12 08:37:48;;;;;;;22.88;16.70;;;;;;;;;;5040594;28;20067;-72
2023/03/12 08:40:14;;;;;;;22.42;16.67;;;;;;;;;;5031640;28;20509;-70
2023/03/12 08:42:41;;;;;;;30.30;17.83;;;1.50;99.90;;;;;;5049990;28;20065;-70
2023/03/12 08:45:08;;;;;;;27.42;18.05;;;;;;;;;;5050247;28;20129;-69
2023/03/12 08:47:34;;;;;;;29.48;18.50;;;1.60;99.90;;;;;;5047926;28;20041;-70
2023/03/12 08:50:01;;;;;;;26.38;18.40;;;;;;;;;;5047418;28;20394;-71
2023/03/12 08:52:27;;;;;;;33.10;20.02;;;2.30;99.90;;;;;;5048559;28;20092;-72
2023/03/12 08:54:53;;;;;;;29.25;18.73;;;;;;;;;;5050568;28;20520;-72
2023/03/12 08:57:18;;;;;;;30.90;18.95;;;1.30;99.90;;;;;;5051094;28;20045;-71
2023/03/12 08:59:44;;;;;;;30.10;19.03;;;;;;;;;;5051834;28;20504;-70
2023/03/12 09:02:11;;;;;;;26.63;19.30;;;;;;;;;;5051348;28;20287;-70
2023/03/12 09:04:38;;;;;;;29.83;19.10;;;;;;;;;;5050757;28;20146;-70
2023/03/12 09:07:04;;;;;;;32.97;20.48;;;1.30;99.90;;;;;;5066527;28;20139;-70
2023/03/12 09:09:30;;;;;;;34.13;19.02;;;;;;;;;;5051359;28;20400;-70
2023/03/12 09:11:56;;;;;;;32.55;18.85;;;;;;;;;;5048180;28;20420;-71
2023/03/12 09:14:22;;;;;;;28.67;18.95;;;;;;;;;;5050403;28;20059;-70
2023/03/12 09:16:48;;;;;;;32.47;19.20;;;;;;;;;;5051497;28;20396;-70
2023/03/12 09:19:14;;;;;;;;;;;;;;;;;;5050757;28;20055;-74
2023/03/12 09:21:40;;;;;;;31.42;18.45;;;1.10;99.90;;;;;;5051148;28;19921;-71
2023/03/12 09:24:07;;;;;;;27.88;19.15;;;;;;;;;;5051594;28;20099;-70
2023/03/12 09:26:33;;;;;;;;;;;;;;;;;;5051927;28;20128;-70
2023/03/12 09:28:59;;;;;;;31.55;18.52;;;;;;;;;;5051562;28;19927;-71
2023/03/12 09:31:25;;;;;;;35.50;19.75;;;;;;;;;;5051309;28;20053;-74
2023/03/12 09:33:51;;;;;;;33.22;18.42;;;;;;;;;;5050467;28;20094;-70
2023/03/12 09:36:18;;;;;;;26.45;18.52;;;;;;;;;;5051268;28;20139;-70
2023/03/12 09:38:43;;;;;;;28.55;18.50;;;2.20;99.90;;;;;;5051230;28;20052;-70
2023/03/12 09:41:16;;;;;;;32.35;18.13;;;;;;;;;;5055462;28;20048;-70
2023/03/12 09:43:48;;;;;;;28.20;17.67;;;2.20;99.90;;;;;;5055355;28;20068;-71
2023/03/12 09:46:17;;;;;;;33.40;20.25;;;;;;;;;;5055484;28;20127;-70
2023/03/12 09:48:44;;;;;;;29.67;19.20;;;;;;;;;;5055218;28;20132;-71
2023/03/12 09:51:16;;;;;;;31.15;18.35;;;2.40;99.90;;;;;;5055232;28;20052;-70
2023/03/12 09:53:45;;;;;;;31.58;19.58;;;;;;;;;;5055342;28;20045;-70
2023/03/12 09:56:14;;;;;;;28.27;20.52;;;;;;;;;;5055288;28;20057;-69
2023/03/12 09:58:42;;;;;;;30.17;19.65;;;2.40;99.90;;;;;;5053970;28;20045;-69
2023/03/12 10:01:11;;;;;;;26.33;17.88;;;;;;;;;;5054980;28;20053;-69
2023/03/12 10:03:52;;;;;;;28.02;18.98;;;;;;;;;;5053881;28;20053;-70
2023/03/12 10:06:21;;;;;;;23.90;17.30;;;;;;;;;;5054846;28;20143;-69
2023/03/12 10:09:02;;;;;;;25.73;18.58;;;;;;;;;;5055085;28;20055;-70
2023/03/12 10:11:38;;;;;;;28.48;19.58;;;;;;;;;;5053136;28;20048;-77
2023/03/12 10:14:10;;;;;;;30.17;18.37;;;;;;;;;;5049705;28;20041;-69
2023/03/12 10:17:30;;;;;;;28.67;18.88;;;2.00;99.90;;;;;;5052518;28;20284;-69
2023/03/12 10:19:56;;;;;;;27.38;17.85;;;;;;;;;;5050995;28;20051;-70
2023/03/12 10:22:46;;;;;;;30.00;18.90;;;;;;;;;;5054344;28;20472;-73
2023/03/12 10:25:29;;;;;;;25.27;18.17;;;;;;;;;;5053713;28;20507;-69
2023/03/12 10:28:01;;;;;;;26.58;18.80;;;1.90;99.90;;;;;;5054781;28;20049;-69
2023/03/12 10:30:29;;;;;;;30.85;19.35;;;1.80;99.90;;;;;;5054697;28;20045;-69
2023/03/12 10:32:57;;;;;;;31.10;17.67;;;;;;;;;;5054494;28;20048;-69
2023/03/12 10:35:25;;;;;;;26.55;20.20;;;2.00;99.90;;;;;;5054326;28;20049;-73
2023/03/12 10:37:56;;;;;;;29.92;19.27;;;2.00;99.90;;;;;;5054561;28;20103;-69
2023/03/12 10:40:32;;;;;;;29.60;19.50;;;2.80;99.90;;;;;;5054164;28;20508;-69
2023/03/12 10:42:58;;;;;;;;;;;;;;;;;;5054787;28;20057;-69
2023/03/12 10:45:36;;;;;;;29.00;18.77;;;2.50;99.90;;;;;;5054376;28;20066;-70
2023/03/12 10:48:08;;;;;;;30.85;19.95;;;2.90;99.90;;;;;;5054140;28;20151;-69
2023/03/12 10:50:35;;;;;;;30.63;19.20;;;;;;;;;;5052761;28;20045;-70
2023/03/12 10:53:26;;;;;;;28.48;17.95;;;2.40;99.90;;;;;;5052923;28;20087;-69
2023/03/12 10:56:02;;;;;;;27.77;18.13;;;3.00;99.90;;;;;;5054078;28;20077;-69
2023/03/12 10:58:32;;;;;;;29.55;21.25;;;;;;;;;;5054082;28;20109;-69
2023/03/12 11:01:00;;;;;;;30.55;20.02;;;;;;;;;;5054107;28;20409;-70
2023/03/12 11:03:26;;;;;;;31.73;19.20;;;;;;;;;;5053697;28;20048;-70
2023/03/12 11:05:55;;;;;;;32.08;20.95;;;3.40;99.90;;;;;;5054005;28;20135;-69
2023/03/12 11:08:29;;;;;;;33.33;20.90;;;;;;;;;;5053531;28;20053;-69
2023/03/12 11:10:57;;;;;;;35.80;19.70;;;3.10;99.90;;;;;;5052773;28;20059;-69
2023/03/12 11:13:32;;;;;;;33.90;21.02;;;;;;;;;;5053727;28;20044;-68
2023/03/12 11:16:00;;;;;;;35.92;19.98;;;2.50;99.90;;;;;;5052703;28;20503;-69
2023/03/12 11:18:35;;;;;;;31.92;20.25;;;3.40;99.90;;;;;;5053446;28;20090;-70
2023/03/12 11:21:09;;;;;;;38.28;19.83;;;;;;;;;;5053685;28;20056;-69
2023/03/12 11:23:42;;;;;;;40.13;20.35;;;2.90;99.90;;;;;;5053349;28;20480;-70
2023/03/12 11:26:18;;;;;;;31.35;19.50;;;4.10;99.90;;;;;;5053628;28;20053;-71
2023/03/12 11:28:48;;;;;;;37.67;20.42;;;;;;;;;;5053569;28;20045;-70
2023/03/12 11:31:28;;;;;;;42.78;20.35;;;4.30;99.90;;;;;;5053254;28;20074;-70
2023/03/12 11:33:57;;;;;;;37.28;20.30;;;;;;;;;;5053443;28;20056;-69
2023/03/12 11:37:01;;;;;;;38.72;19.80;;;3.40;99.90;;;;;;5053430;28;20084;-70
2023/03/12 11:39:27;;;;;;;42.53;20.95;;;;;;;;;;5050712;28;20048;-70
2023/03/12 11:41:56;;;;;;;39.65;20.77;;;3.40;99.90;;;;;;5050482;28;20041;-69
2023/03/12 11:44:46;;;;;;;41.75;22.77;;;3.90;99.90;;;;;;5041092;28;20064;-69
2023/03/12 11:47:18;;;;;;;37.38;20.45;;;3.60;99.90;;;;;;5051626;28;20100;-71
2023/03/12 11:50:06;;;;;;;35.70;20.73;;;;;;;;;;5053576;28;20048;-72
2023/03/12 11:52:39;;;;;;;42.03;22.60;;;4.70;99.90;;;;;;5052730;28;20508;-70
2023/03/12 11:55:38;;;;;;;40.80;22.58;;;4.50;99.90;;;;;;5052999;28;20057;-70
2023/03/12 11:58:22;;;;;;;39.38;22.20;;;5.00;99.90;;;;;;5052021;28;20146;-70
2023/03/12 12:01:05;;;;;;;40.63;22.13;;;4.20;99.90;;;;;;5052737;28;20045;-69
2023/03/12 12:03:34;;;;;;;40.35;22.80;;;;;;;;;;5052401;28;20048;-69
2023/03/12 12:06:23;;;;;;;43.53;23.33;;;4.70;99.90;;;;;;5052812;28;20052;-73
2023/03/12 12:08:52;;;;;;;40.83;23.42;;;;;;;;;;5053022;28;20401;-70
2023/03/12 12:11:29;;;;;;;44.67;23.95;;;;;;;;;;5052984;28;20049;-69
2023/03/12 12:14:15;;;;;;;;;;;6.00;99.90;;;;;;5053241;28;20110;-70
2023/03/12 12:16:55;;;;;;;44.80;23.48;;;4.40;99.90;;;;;;5050963;28;20377;-69
2023/03/12 12:19:39;;;;;;;46.97;23.35;;;4.80;99.90;;;;;;5052730;28;20052;-69
2023/03/12 12:22:24;;;;;;;42.42;22.77;;;;;;;;;;5051497;28;20496;-69
2023/03/12 12:25:08;;;;;;;44.28;22.80;;;5.10;99.90;;;;;;5052442;28;20045;-70
2023/03/12 12:27:48;;;;;;;39.83;22.05;;;6.00;99.90;;;;;;5052433;28;20374;-70
2023/03/12 12:30:18;;;;;;;46.30;22.50;;;5.40;99.90;;;;;;5052095;28;20110;-72
2023/03/12 12:33:13;;;;;;;47.50;23.33;;;5.10;99.90;;;;;;5052237;28;20044;-68
2023/03/12 12:35:41;;;;;;;51.05;22.88;;;6.90;99.90;;;;;;5052359;28;20045;-69
2023/03/12 12:38:19;;;;;;;54.50;23.85;;;5.70;99.90;;;;;;5052211;28;20041;-69
2023/03/12 12:40:54;;;;;;;52.55;23.58;;;5.50;99.90;;;;;;5052266;28;20435;-69
2023/03/12 12:43:34;;;;;;;51.15;23.77;;;6.50;99.90;;;;;;5052140;28;20061;-69
2023/03/12 12:46:23;;;;;;;49.30;23.30;;;6.90;99.90;;;;;;5051606;28;20505;-69
2023/03/12 12:48:56;;;;;;;58.17;24.58;;;6.30;99.90;;;;;;5052054;28;20106;-68
2023/03/12 12:51:29;;;;;;;52.53;22.48;;;7.00;99.90;;;;;;5051976;28;20512;-69
2023/03/12 12:54:32;;;;;;;52.92;22.77;;;7.00;99.90;;;;;;5034357;28;20049;-70
2023/03/12 12:57:15;;;;;;;55.55;22.83;;;6.40;99.90;;;;;;5051992;28;20056;-69
2023/03/12 12:59:49;;;;;;;62.08;24.45;;;6.90;99.90;;;;;;5051654;28;20084;-73
2023/03/12 13:02:26;;;;;;;50.42;21.92;;;7.10;99.90;;;;;;5051883;28;20052;-69
2023/03/12 13:04:57;;;;;;;64.10;21.85;;;6.50;99.90;;;;;;5050867;28;20056;-69
2023/03/12 13:07:22;;;;;;;58.15;22.52;;;6.60;99.90;;;;;;5051854;28;20437;-70
2023/03/12 13:09:51;;;;;;;50.45;19.75;;;7.50;99.90;;;;;;5050719;28;20135;-70
2023/03/12 13:12:46;;;;;;;61.40;20.83;;;6.50;99.90;;;;;;5051744;28;20045;-70
2023/03/12 13:15:30;;;;;;;54.80;19.33;;;6.40;99.90;;;;;;5051822;28;20048;-69
2023/03/12 13:17:58;;;;;;;52.10;19.23;;;8.20;99.90;;;;;;5049273;28;20041;-70
2023/03/12 13:20:40;;;;;;;45.40;16.88;;;7.50;99.90;;;;;;5051389;28;20064;-70
2023/03/12 13:23:24;;;;;;;54.53;16.85;;;8.20;99.90;;;;;;5051645;28;20049;-70
2023/03/12 13:26:10;;;;;;;53.92;16.77;;;7.60;99.90;;;;;;5050497;28;20102;-70
2023/03/12 13:28:56;;;;;;;48.17;16.15;;;6.70;99.90;;;;;;5051394;28;20098;-69
2023/03/12 13:31:28;;;;;;;48.40;11.65;;;8.50;99.90;;;;;;5051630;28;20048;-69
2023/03/12 13:34:04;;;;;;;44.65;10.25;;;6.80;99.90;;;;;;5051518;28;19925;-69
2023/03/12 13:36:32;;;;;;;45.38;9.63;;;9.20;99.90;;;;;;5051256;28;20512;-72
2023/03/12 13:38:59;;;;;;;48.28;9.30;;;6.80;99.90;;;;;;5051490;28;20103;-70
2023/03/12 13:41:40;;;;;;;51.20;9.55;;;9.10;99.90;;;;;;5051405;28;20084;-71
2023/03/12 13:44:31;;;;;;;48.63;9.05;;;9.90;99.90;;;;;;5051138;28;20508;-70
2023/03/12 13:47:29;;;;;;;40.53;8.65;;;7.30;99.90;;;;;;5051418;28;20059;-69
2023/03/12 13:49:59;;;;;;;41.20;8.85;;;7.60;99.90;;;;;;5050845;28;20140;-68
2023/03/12 13:52:32;;;;;;;45.10;9.02;;;9.50;99.90;;;;;;5050186;28;20049;-72
2023/03/12 13:55:01;;;;;;;43.90;7.35;;;8.20;99.90;;;;;;5050410;28;20049;-70
2023/03/12 13:57:49;;;;;;;46.85;8.45;;;9.80;99.90;;;;;;5051157;28;20044;-69
2023/03/12 14:00:34;;;;;;;37.70;8.32;;;8.20;99.90;;;;;;5051275;28;20049;-71
2023/03/12 14:03:23;;;;;;;43.97;7.50;;;10.00;99.90;;;;;;5051513;28;20167;-71
2023/03/12 14:06:07;;;;;;;35.35;7.32;;;8.60;99.90;;;;;;5050878;28;20057;-70
2023/03/12 14:08:45;;;;;;;34.85;7.70;;;8.90;99.90;;;;;;5051258;28;20091;-69